INFORMACIÓN METAR y TAF
METAR FOR LEPA
ADDS - METARS form results

(0751 UTC 24 April 2019)
Data provider http://aviationweather.gov/metar/data/
 
METAR text: LEPA 240730Z 25015KT CAVOK 17/08 Q1010 NOSIG
Conditions at: LEPA (PALMA DE MALLORC, ES) observed 0730 UTC 24 April 2019
Temperature: 17.0°C (63°F)
Dewpoint: 8.0°C (46°F) [RH = 55%]
Pressure (altimeter): 29.82 inches Hg (1010.0 mb)
Winds: from the WSW (250 degrees) at 17 MPH (15 knots; 7.7 m/s)
Visibility: 6 or more miles (10+ km)
Ceiling: ceiling and visibility are OK
Clouds: unknown
Weather: no significant weather observed at this time

METAR text: LEPA 240700Z 24014KT 220V280 CAVOK 16/08 Q1009 NOSIG
Conditions at: LEPA (PALMA DE MALLORC, ES) observed 0700 UTC 24 April 2019
Temperature: 16.0°C (61°F)
Dewpoint: 8.0°C (46°F) [RH = 59%]
Pressure (altimeter): 29.79 inches Hg (1009.0 mb)
Winds: from the WSW (240 degrees) at 16 MPH (14 knots; 7.2 m/s)
Visibility: 6 or more miles (10+ km)
Ceiling: ceiling and visibility are OK
Clouds: unknown
Weather: no significant weather observed at this time

Forecast for: LEPA (PALMA DE MALLORC, ES)
Text: TAF LEPA 240500Z 2406/2506 23013KT 9999 SCT015 TX18/2412Z TN11/2406Z
Forecast period: 0600 UTC 24 April 2019 to 0600 UTC 25 April 2019
Forecast type: FROM: standard forecast or significant change
Winds: from the SW (230 degrees) at 15 MPH (13 knots; 6.7 m/s)
Visibility: 6 or more miles 10+ km)
Ceiling: at least 12,000 feet AGL
Clouds: scattered clouds at 1500 feet AGL
Weather: no significant weather forecast for this period

 MAPA DE AEROPUERTO

 INFORMACIÓN DE PISTA
Pista 06L Longitud 10728 ft Ancho 148 ft
Elevación 15 ft Umbral desplazado 0 ft Rumbo de pista 59
Pista 24R Longitud 10728 ft Ancho 148 ft
Elevación 8 ft Umbral desplazado 230 ft Rumbo de pista 239
Pista 06R Longitud 9842 ft Ancho 148 ft
Elevación 24 ft Umbral desplazado 1345 ft Rumbo de pista 59
Pista 24L Longitud 9842 ft Ancho 148 ft
Elevación 8 ft Umbral desplazado 0 ft Rumbo de pista 239

 FRECUANCIAS DEL AEROPUERTO
Tipo APP Nombre APP Frecuencia 118.95 MHZ
Tipo ATIS Nombre ATIS Frecuencia 119.25 MHZ
Tipo CLD Nombre CLNC DEL Frecuencia 121.6 MHZ
Tipo GND Nombre GND Frecuencia 121.7 MHZ
Tipo OPS Nombre OPS Frecuencia 130.25 MHZ
Tipo TWR Nombre TWR Frecuencia 118.3 MHZ

 RADIO AYUDAS DEL AEROPUERTO



Powered by Virtual Airlines Manager [v2.6.2]